Time;durP1;ratioP1;P1;durP2;ratioP2;P2;SDS_P1;SDS_P2;PMS_P1;PMS_P2;Temp;Humidity;BMP_temperature;BMP_pressure;BME280_temperature;BME280_humidity;BME280_pressure;Samples;Min_cycle;Max_cycle;Signal;HPM_P1;HPM_P2
2022/09/15 00:01:11;;;;;;;36.95;17.50;;;;;;;;;;5008981;28;20038;-60
2022/09/15 00:03:37;;;;;;;48.13;19.17;;;;;;;;;;5027471;28;20041;-60
2022/09/15 00:06:03;;;;;;;42.47;18.30;;;;;;;;;;5008195;28;20037;-59
2022/09/15 00:08:29;;;;;;;44.13;19.02;;;;;;;;;;5009442;28;20037;-60
2022/09/15 00:11:02;;;;;;;42.30;17.52;;;;;;;;;;5008803;28;20046;-61
2022/09/15 00:13:28;;;;;;;42.60;18.02;;;;;;;;;;5010232;28;20038;-58
2022/09/15 00:15:54;;;;;;;42.35;17.55;;;;;;;;;;4998131;28;20077;-58
2022/09/15 00:18:20;;;;;;;43.25;17.48;;;;;;;;;;5020428;28;20041;-59
2022/09/15 00:20:45;;;;;;;42.50;18.10;;;;;;;;;;5015181;28;20088;-59
2022/09/15 00:23:13;;;;;;;39.80;16.83;;;;;;;;;;5014597;28;20376;-59
2022/09/15 00:25:49;;;;;;;46.78;17.63;;;;;;;;;;5026615;28;20037;-58
2022/09/15 00:28:19;;;;;;;43.92;17.13;;;;;;;;;;5004615;28;20041;-58
2022/09/15 00:30:48;;;;;;;38.38;17.25;;;;;;;;;;4990894;28;20038;-60
2022/09/15 00:33:15;;;;;;;40.08;17.23;;;;;;;;;;5008085;28;20077;-58
2022/09/15 00:35:43;;;;;;;35.13;17.27;;;;;;;;;;4998141;28;20030;-60
2022/09/15 00:38:09;;;;;;;34.70;16.48;;;;;;;;;;5010300;28;20037;-59
2022/09/15 00:40:53;;;;;;;30.25;15.88;;;;;;;;;;5024420;28;20025;-58
2022/09/15 00:43:41;;;;;;;37.28;16.17;;;;;;;;;;5003906;28;20057;-60
2022/09/15 00:46:07;;;;;;;39.50;16.10;;;;;;;;;;5002703;28;20073;-60
2022/09/15 00:48:33;;;;;;;39.22;16.88;;;;;;;;;;4998694;28;20036;-59
2022/09/15 00:51:00;;;;;;;38.35;16.30;;;;;;;;;;5007950;28;20041;-60
2022/09/15 00:53:26;;;;;;;36.65;16.10;;;;;;;;;;5009131;28;20397;-60
2022/09/15 00:55:53;;;;;;;37.20;17.05;;;;;;;;;;5021243;28;20131;-59
2022/09/15 00:58:31;;;;;;;36.28;16.20;;;;;;;;;;5008586;28;20053;-59
2022/09/15 01:00:59;;;;;;;33.72;15.32;;;;;;;;;;5006153;28;20042;-60
2022/09/15 01:03:28;;;;;;;40.45;15.93;;;;;;;;;;5019677;28;20100;-60
2022/09/15 01:05:57;;;;;;;41.03;16.25;;;;;;;;;;5011046;28;20062;-59
2022/09/15 01:08:37;;;;;;;36.83;15.70;;;;;;;;;;5014724;28;20100;-59
2022/09/15 01:11:02;;;;;;;38.55;15.80;;;;;;;;;;5019508;28;20131;-60
2022/09/15 01:13:28;;;;;;;40.20;16.67;;;;;;;;;;4998017;28;20751;-59
2022/09/15 01:16:29;;;;;;;55.83;17.13;;;;;;;;;;5022195;28;20037;-59
2022/09/15 01:19:46;;;;;;;35.35;15.13;;;;;;;;;;4986482;28;20498;-59
2022/09/15 01:22:47;;;;;;;33.97;15.32;;;;;;;;;;4989192;28;20046;-59
2022/09/15 01:25:26;;;;;;;;;;;;;;;;;;4935218;29;20492;-57
2022/09/15 01:28:00;;;;;;;29.23;12.95;;;;;;;;;;4980797;28;19921;-60
2022/09/15 01:30:26;;;;;;;33.63;15.07;;;;;;;;;;4983348;28;20046;-60
2022/09/15 01:33:07;;;;;;;39.80;16.08;;;;;;;;;;4963352;28;20046;-60
2022/09/15 01:35:51;;;;;;;;;;;;;;;;;;4973961;28;20039;-58
2022/09/15 01:38:27;;;;;;;35.47;14.75;;;;;;;;;;4994113;28;20066;-60
2022/09/15 01:41:24;;;;;;;44.90;15.77;;;;;;;;;;4972896;28;20451;-60
2022/09/15 01:44:10;;;;;;;36.47;16.17;;;;;;;;;;5003080;28;20042;-60
2022/09/15 01:46:45;;;;;;;35.58;14.95;;;;;;;;;;4991451;28;21519;-59
2022/09/15 01:49:14;;;;;;;42.78;16.33;;;;;;;;;;4972675;28;20030;-59
2022/09/15 01:51:42;;;;;;;43.72;15.43;;;;;;;;;;4968607;28;20077;-60
2022/09/15 01:54:09;;;;;;;39.08;15.88;;;;;;;;;;5024809;28;20337;-59
2022/09/15 01:56:37;;;;;;;49.20;17.17;;;;;;;;;;5012215;28;20087;-60
2022/09/15 01:59:03;;;;;;;54.83;17.70;;;;;;;;;;5010039;28;20097;-59
2022/09/15 02:01:43;;;;;;;56.90;17.08;;;;;;;;;;5013957;28;20493;-58
2022/09/15 02:04:26;;;;;;;54.63;17.60;;;;;;;;;;5011610;28;20041;-59
2022/09/15 02:07:36;;;;;;;47.15;17.13;;;;;;;;;;5025997;28;20286;-60
2022/09/15 02:10:10;;;;;;;47.05;16.50;;;;;;;;;;4996265;28;20056;-59
2022/09/15 02:13:05;;;;;;;51.15;16.90;;;;;;;;;;5012214;28;20084;-59
2022/09/15 02:15:41;;;;;;;47.88;17.88;;;;;;;;;;5009958;28;20034;-59
2022/09/15 02:18:09;;;;;;;54.92;17.33;;;;;;;;;;5009215;28;22142;-59
2022/09/15 02:20:48;;;;;;;49.78;17.48;;;;;;;;;;5027266;28;20033;-59
2022/09/15 02:23:21;;;;;;;50.50;17.50;;;;;;;;;;4995782;28;20041;-59
2022/09/15 02:25:50;;;;;;;51.50;17.38;;;;;;;;;;5014507;28;20038;-59
2022/09/15 02:28:20;;;;;;;48.53;17.55;;;;;;;;;;5021333;28;20022;-59
2022/09/15 02:30:48;;;;;;;47.67;16.25;;;;;;;;;;5008838;28;20034;-59
2022/09/15 02:33:18;;;;;;;47.28;17.23;;;;;;;;;;5030532;28;20681;-59
2022/09/15 02:35:44;;;;;;;40.58;15.73;;;;;;;;;;5029366;28;20096;-59
2022/09/15 02:38:11;;;;;;;50.88;16.95;;;;;;;;;;5000836;28;20145;-59
2022/09/15 02:40:40;;;;;;;46.70;17.13;;;;;;;;;;5008196;28;20037;-59
2022/09/15 02:43:12;;;;;;;46.13;16.15;;;;;;;;;;5026433;28;20038;-59
2022/09/15 02:45:38;;;;;;;44.40;16.05;;;;;;;;;;5017047;28;20044;-59
2022/09/15 02:48:04;;;;;;;44.08;15.75;;;;;;;;;;5015081;28;20034;-58
2022/09/15 02:50:29;;;;;;;48.47;17.33;;;;;;;;;;5010981;28;20558;-60
2022/09/15 02:52:55;;;;;;;49.15;16.95;;;;;;;;;;5026699;28;20029;-61
2022/09/15 02:55:22;;;;;;;64.18;18.27;;;;;;;;;;5023107;28;20037;-60
2022/09/15 02:57:48;;;;;;;47.20;17.02;;;;;;;;;;5013404;28;20066;-59
2022/09/15 03:00:16;;;;;;;49.67;17.70;;;;;;;;;;4999669;28;20061;-60
2022/09/15 03:02:48;;;;;;;53.22;18.15;;;;;;;;;;5000732;28;20042;-60
2022/09/15 03:05:16;;;;;;;49.83;16.67;;;;;;;;;;5007809;28;20223;-58
2022/09/15 03:07:42;;;;;;;44.22;16.45;;;;;;;;;;5027716;28;20029;-58
2022/09/15 03:10:10;;;;;;;46.45;15.98;;;;;;;;;;5021101;28;20519;-60
2022/09/15 03:12:37;;;;;;;48.45;16.85;;;;;;;;;;5013986;28;20050;-59
2022/09/15 03:15:03;;;;;;;41.38;17.05;;;;;;;;;;5016812;28;20455;-61
2022/09/15 03:17:32;;;;;;;44.88;17.02;;;;;;;;;;5011679;28;20033;-59
2022/09/15 03:19:59;;;;;;;41.75;16.77;;;;;;;;;;5020227;28;20041;-59
2022/09/15 03:22:24;;;;;;;47.67;17.08;;;;;;;;;;5017665;28;20038;-59
2022/09/15 03:24:50;;;;;;;47.33;17.40;;;;;;;;;;5010394;28;20041;-59
2022/09/15 03:27:16;;;;;;;47.03;17.77;;;;;;;;;;5011488;28;20100;-59
2022/09/15 03:29:41;;;;;;;50.22;17.05;;;;;;;;;;5026013;28;20042;-60
2022/09/15 03:32:07;;;;;;;56.10;17.90;;;;;;;;;;5003756;28;20075;-61
2022/09/15 03:34:32;;;;;;;49.17;18.02;;;;;;;;;;5022927;28;20105;-60
2022/09/15 03:36:58;;;;;;;53.33;18.70;;;;;;;;;;5007230;28;20058;-61
2022/09/15 03:39:23;;;;;;;48.90;18.33;;;;;;;;;;5011969;28;20485;-59
2022/09/15 03:41:48;;;;;;;55.72;18.55;;;;;;;;;;5031136;28;20037;-61
2022/09/15 03:44:14;;;;;;;54.00;19.08;;;;;;;;;;5007295;28;20046;-60
2022/09/15 03:46:39;;;;;;;51.75;17.98;;;;;;;;;;5011102;28;20042;-60
2022/09/15 03:49:05;;;;;;;42.53;18.20;;;;;;;;;;5014995;28;20092;-60
2022/09/15 03:51:30;;;;;;;56.25;18.48;;;;;;;;;;5006907;28;20112;-59
2022/09/15 03:53:55;;;;;;;56.38;18.15;;;;;;;;;;5000698;28;20450;-61
2022/09/15 03:56:31;;;;;;;47.10;17.50;;;;;;;;;;5010823;28;20048;-59
2022/09/15 03:58:58;;;;;;;53.47;18.55;;;;;;;;;;5030604;28;20029;-61
2022/09/15 04:01:24;;;;;;;47.35;18.92;;;;;;;;;;5012112;28;20034;-59
2022/09/15 04:03:50;;;;;;;49.75;18.83;;;;;;;;;;5007893;28;20482;-60
2022/09/15 04:06:16;;;;;;;49.42;19.42;;;;;;;;;;5014184;28;20033;-60
2022/09/15 04:08:42;;;;;;;52.33;19.35;;;;;;;;;;5009837;28;20030;-59
2022/09/15 04:11:09;;;;;;;43.85;17.98;;;;;;;;;;5003628;28;20092;-59
2022/09/15 04:13:36;;;;;;;46.08;19.27;;;;;;;;;;5005833;28;20445;-59
2022/09/15 04:16:04;;;;;;;50.65;19.20;;;;;;;;;;5000715;28;20034;-59
2022/09/15 04:18:32;;;;;;;47.83;19.25;;;;;;;;;;4992481;28;20046;-59
2022/09/15 04:21:07;;;;;;;48.58;18.83;;;;;;;;;;5009226;28;20107;-59
2022/09/15 04:23:33;;;;;;;46.00;18.30;;;;;;;;;;5018547;28;20091;-59
2022/09/15 04:26:04;;;;;;;46.63;18.60;;;;;;;;;;5020977;28;20034;-59
2022/09/15 04:28:36;;;;;;;46.05;17.75;;;;;;;;;;5020721;28;20025;-58
2022/09/15 04:31:08;;;;;;;48.92;18.75;;;;;;;;;;5013179;28;20109;-59
2022/09/15 04:33:34;;;;;;;45.40;19.15;;;;;;;;;;5009273;28;20057;-58
2022/09/15 04:36:01;;;;;;;45.90;18.08;;;;;;;;;;5011499;28;20037;-59
2022/09/15 04:38:27;;;;;;;44.70;18.17;;;;;;;;;;5019195;28;20030;-58
2022/09/15 04:40:54;;;;;;;45.38;17.52;;;;;;;;;;5018863;28;20163;-58
2022/09/15 04:43:20;;;;;;;52.30;19.05;;;;;;;;;;5031078;28;20037;-58
2022/09/15 04:45:45;;;;;;;49.38;18.15;;;;;;;;;;5009277;28;20026;-58
2022/09/15 04:48:10;;;;;;;41.67;17.70;;;;;;;;;;5010337;28;20030;-59
2022/09/15 04:50:36;;;;;;;48.42;18.38;;;;;;;;;;5008642;28;20053;-60
2022/09/15 04:53:01;;;;;;;48.33;18.20;;;;;;;;;;5005337;28;20065;-61
2022/09/15 04:55:27;;;;;;;45.05;18.38;;;;;;;;;;5019351;28;20828;-59
2022/09/15 04:57:54;;;;;;;47.13;18.92;;;;;;;;;;5031398;28;20124;-59
2022/09/15 05:00:19;;;;;;;47.47;19.90;;;;;;;;;;5019930;28;20113;-59
2022/09/15 05:02:45;;;;;;;47.72;20.70;;;;;;;;;;4996197;28;20037;-59
2022/09/15 05:05:10;;;;;;;45.33;20.10;;;;;;;;;;5009199;28;20030;-59
2022/09/15 05:07:35;;;;;;;47.58;20.75;;;;;;;;;;5010886;28;20544;-59
2022/09/15 05:10:01;;;;;;;47.05;19.98;;;;;;;;;;5020972;28;20061;-59
2022/09/15 05:12:26;;;;;;;51.53;21.02;;;;;;;;;;4993214;28;20038;-60
2022/09/15 05:14:52;;;;;;;47.20;20.38;;;;;;;;;;5030055;28;20038;-59
2022/09/15 05:17:18;;;;;;;42.38;20.35;;;;;;;;;;5011088;28;20054;-59
2022/09/15 05:19:43;;;;;;;47.72;21.23;;;;;;;;;;5007288;28;20101;-61
2022/09/15 05:22:08;;;;;;;48.65;20.58;;;;;;;;;;5006505;28;20091;-63
2022/09/15 05:24:34;;;;;;;48.83;21.02;;;;;;;;;;5016298;28;20052;-62
2022/09/15 05:26:59;;;;;;;47.70;20.55;;;;;;;;;;5007276;28;20486;-62
2022/09/15 05:29:25;;;;;;;45.47;20.13;;;;;;;;;;5010844;28;20034;-63
2022/09/15 05:31:50;;;;;;;55.72;21.65;;;;;;;;;;5022081;28;20143;-63
2022/09/15 05:34:16;;;;;;;52.08;20.90;;;;;;;;;;5017211;28;20065;-64
2022/09/15 05:36:41;;;;;;;47.72;20.63;;;;;;;;;;5021108;28;20121;-64
2022/09/15 05:39:06;;;;;;;50.50;21.15;;;;;;;;;;5010564;28;20029;-64
2022/09/15 05:41:32;;;;;;;47.92;20.58;;;;;;;;;;5017660;28;20066;-61
2022/09/15 05:43:58;;;;;;;41.75;19.98;;;;;;;;;;5009394;28;20116;-62
2022/09/15 05:46:27;;;;;;;42.20;20.40;;;;;;;;;;5017370;28;20128;-61
2022/09/15 05:48:55;;;;;;;45.00;20.77;;;;;;;;;;5029358;28;20109;-60
2022/09/15 05:51:21;;;;;;;38.35;18.67;;;;;;;;;;4999481;28;20042;-60
2022/09/15 05:53:46;;;;;;;42.55;19.45;;;;;;;;;;5013581;28;20038;-60
2022/09/15 05:56:13;;;;;;;36.70;19.50;;;;;;;;;;4996474;28;20540;-62
2022/09/15 05:58:40;;;;;;;36.78;18.80;;;;;;;;;;5013332;28;20026;-62
2022/09/15 06:01:18;;;;;;;42.70;18.58;;;;;;;;;;5030145;28;20042;-60
2022/09/15 06:03:44;;;;;;;38.88;18.77;;;;;;;;;;5026522;28;20041;-61
2022/09/15 06:06:11;;;;;;;34.47;18.27;;;;;;;;;;5024037;28;20025;-62
2022/09/15 06:08:40;;;;;;;34.75;19.13;;;;;;;;;;5029578;28;20112;-61
2022/09/15 06:11:12;;;;;;;35.33;18.48;;;;;;;;;;5019402;28;20386;-61
2022/09/15 06:13:38;;;;;;;40.10;18.33;;;;;;;;;;5018542;28;20053;-61
2022/09/15 06:16:13;;;;;;;36.72;17.67;;;;;;;;;;5023834;28;20037;-61
2022/09/15 06:18:39;;;;;;;32.80;17.65;;;;;;;;;;5030820;28;20193;-61
2022/09/15 06:21:11;;;;;;;32.72;16.83;;;;;;;;;;5022442;28;20120;-61
2022/09/15 06:23:37;;;;;;;35.03;17.65;;;;;;;;;;5024831;28;20034;-62
2022/09/15 06:26:20;;;;;;;33.15;17.65;;;;;;;;;;5018645;28;20181;-61
2022/09/15 06:28:49;;;;;;;32.67;17.63;;;;;;;;;;4994612;28;20041;-60
2022/09/15 06:31:14;;;;;;;31.77;17.38;;;;;;;;;;5024502;28;20042;-61
2022/09/15 06:33:42;;;;;;;32.95;17.00;;;;;;;;;;5026752;28;20159;-62
2022/09/15 06:36:10;;;;;;;33.10;17.67;;;;;;;;;;5023989;28;20034;-61
2022/09/15 06:38:35;;;;;;;26.40;16.25;;;;;;;;;;5013839;28;20161;-62
2022/09/15 06:41:01;;;;;;;27.25;16.30;;;;;;;;;;5024982;28;20116;-61
2022/09/15 06:43:26;;;;;;;30.77;16.45;;;;;;;;;;5014786;28;20026;-60
2022/09/15 06:45:52;;;;;;;28.95;15.40;;;;;;;;;;5019794;28;20041;-61
2022/09/15 06:48:17;;;;;;;28.38;15.60;;;;;;;;;;5031180;28;20026;-61
2022/09/15 06:50:43;;;;;;;28.08;14.85;;;;;;;;;;5025302;28;20036;-61
2022/09/15 06:53:09;;;;;;;30.35;13.82;;;;;;;;;;5031289;28;20100;-60
2022/09/15 06:55:35;;;;;;;24.02;14.43;;;;;;;;;;5022965;28;20033;-62
2022/09/15 06:58:00;;;;;;;26.92;14.48;;;;;;;;;;5012729;28;20084;-61
2022/09/15 07:00:26;;;;;;;28.35;14.73;;;;;;;;;;5011691;28;20032;-60
2022/09/15 07:02:51;;;;;;;26.70;13.68;;;;;;;;;;5028423;28;20391;-61
2022/09/15 07:05:17;;;;;;;20.92;12.35;;;;;;;;;;5014035;28;20454;-60
2022/09/15 07:07:42;;;;;;;22.20;12.10;;;;;;;;;;5031207;28;20041;-60
2022/09/15 07:10:08;;;;;;;18.75;12.45;;;;;;;;;;4997784;28;20046;-61
2022/09/15 07:12:33;;;;;;;21.98;11.93;;;;;;;;;;5030393;28;20425;-61
2022/09/15 07:14:59;;;;;;;19.02;10.55;;;;;;;;;;5031462;28;20393;-61
2022/09/15 07:17:25;;;;;;;22.10;11.30;;;;;;;;;;5015366;28;20304;-61
2022/09/15 07:19:51;;;;;;;20.67;11.57;;;;;;;;;;5031821;28;20080;-60
2022/09/15 07:22:16;;;;;;;19.25;10.85;;;;;;;;;;5025228;28;20029;-61
2022/09/15 07:24:42;;;;;;;16.70;10.57;;;;;;;;;;5011723;28;20037;-60
2022/09/15 07:27:07;;;;;;;17.95;10.10;;;;;;;;;;5025333;28;20113;-61
2022/09/15 07:29:33;;;;;;;18.27;9.32;;;;;;;;;;5027675;28;20487;-61
2022/09/15 07:31:59;;;;;;;15.18;9.32;;;;;;;;;;5016887;28;20112;-61
2022/09/15 07:34:24;;;;;;;15.50;8.70;;;;;;;;;;5013903;28;20097;-61
2022/09/15 07:36:50;;;;;;;16.13;8.52;;;;;;;;;;5026163;28;20083;-62
2022/09/15 07:39:15;;;;;;;14.73;8.60;;;;;;;;;;5018333;28;20379;-60
2022/09/15 07:41:40;;;;;;;15.40;8.07;;;;;;;;;;5016428;28;20038;-61
2022/09/15 07:44:07;;;;;;;16.88;7.90;;;;;;;;;;5012292;28;20030;-60
2022/09/15 07:46:32;;;;;;;14.77;7.38;;;;;;;;;;5016955;28;20049;-61
2022/09/15 07:48:59;;;;;;;15.85;8.00;;;;;;;;;;4993186;28;20034;-60
2022/09/15 07:51:25;;;;;;;11.80;6.93;;;;;;;;;;4999965;28;20050;-61
2022/09/15 07:53:51;;;;;;;12.00;6.70;;;;;;;;;;4997688;28;20026;-61
2022/09/15 07:56:18;;;;;;;11.65;6.13;;;;;;;;;;5009732;28;20030;-61
2022/09/15 07:58:44;;;;;;;13.95;7.43;;;;;;;;;;5011900;28;20044;-62
2022/09/15 08:01:10;;;;;;;14.40;6.65;;;;;;;;;;5013537;28;20040;-61
2022/09/15 08:03:40;;;;;;;9.75;6.32;;;;;;;;;;5007355;28;20034;-61
2022/09/15 08:06:06;;;;;;;11.00;5.88;;;;;;;;;;5012083;28;20105;-61
2022/09/15 08:08:31;;;;;;;11.27;6.63;;;;;;;;;;5007699;28;20121;-61
2022/09/15 08:10:57;;;;;;;13.95;7.05;;;;;;;;;;5022467;28;20387;-61
2022/09/15 08:13:23;;;;;;;12.07;5.68;;;;;;;;;;5029126;28;20098;-62
2022/09/15 08:15:49;;;;;;;12.05;6.28;;;;;;;;;;5018887;28;20045;-63
2022/09/15 08:18:14;;;;;;;11.90;5.93;;;;;;;;;;5020771;28;20434;-61
2022/09/15 08:20:41;;;;;;;12.35;5.35;;;;;;;;;;5030132;28;20034;-61
2022/09/15 08:23:07;;;;;;;11.70;5.50;;;;;;;;;;5031312;28;20029;-61
2022/09/15 08:25:33;;;;;;;10.68;4.97;;;;;;;;;;5012312;28;20069;-61
2022/09/15 08:27:58;;;;;;;8.55;4.80;;;;;;;;;;5018518;28;20045;-62
2022/09/15 08:30:25;;;;;;;10.27;5.15;;;;;;;;;;5027301;28;20032;-62
2022/09/15 08:32:51;;;;;;;9.95;5.05;;;;;;;;;;5029454;28;20045;-62
2022/09/15 08:35:16;;;;;;;9.25;4.30;;;;;;;;;;5017726;28;20064;-61
2022/09/15 08:37:42;;;;;;;10.00;4.47;;;;;;;;;;5026960;28;20455;-62
2022/09/15 08:40:21;;;;;;;10.82;4.07;;;;;;;;;;5016840;28;20033;-61
2022/09/15 08:42:50;;;;;;;8.80;3.92;;;;;;;;;;5010936;28;20038;-60
2022/09/15 08:45:29;;;;;;;7.22;3.40;;;;;;;;;;5017978;28;20488;-62
2022/09/15 08:47:59;;;;;;;8.52;3.28;;;;;;;;;;5018305;28;20049;-62
2022/09/15 08:50:42;;;;;;;10.55;3.95;;;;;;;;;;5011061;28;20030;-61
2022/09/15 08:53:12;;;;;;;6.25;3.10;;;;;;;;;;5008479;28;20037;-63
2022/09/15 08:55:49;;;;;;;10.52;3.08;;;;;;;;;;5030072;28;20478;-65
2022/09/15 08:58:19;;;;;;;8.30;2.83;;;;;;;;;;5028594;28;20095;-64
2022/09/15 09:00:47;;;;;;;7.63;2.60;;;;;;;;;;5009450;28;20474;-62
2022/09/15 09:03:51;;;;;;;7.63;2.63;;;;;;;;;;5025110;28;20041;-66
2022/09/15 09:06:34;;;;;;;7.38;2.50;;;;;;;;;;5018201;28;20034;-64
2022/09/15 09:09:17;;;;;;;6.07;2.42;;;;;;;;;;5030531;28;20148;-66
2022/09/15 09:12:07;;;;;;;5.00;2.15;;;;;;;;;;5028743;28;20037;-65
2022/09/15 09:14:41;;;;;;;7.70;2.00;;;;;;;;;;5009984;28;20049;-66
2022/09/15 09:17:25;;;;;;;5.93;2.17;;;;;;;;;;5004496;28;20270;-65
2022/09/15 09:20:14;;;;;;;6.65;1.95;;;;;;;;;;5009271;28;20411;-64
2022/09/15 09:22:43;;;;;;;5.93;2.30;;;;;;;;;;5020908;28;20034;-64
2022/09/15 09:25:13;;;;;;;8.73;2.40;;;;;;;;;;5016881;28;20061;-62
2022/09/15 09:27:39;;;;;;;7.88;1.88;;;;;;;;;;5033608;28;20116;-62
2022/09/15 09:30:22;;;;;;;9.80;2.38;;;;;;;;;;5031013;28;20120;-62
2022/09/15 09:32:56;;;;;;;8.88;2.30;;;;;;;;;;5025651;28;20168;-61
2022/09/15 09:35:33;;;;;;;5.43;1.83;;;;;;;;;;5020921;28;20098;-61
2022/09/15 09:38:01;;;;;;;6.63;2.10;;;;;;;;;;5030033;28;20188;-61
2022/09/15 09:40:29;;;;;;;6.75;1.98;;;;;;;;;;5015819;28;20033;-60
2022/09/15 09:42:55;;;;;;;5.25;1.90;;;;;;;;;;5023431;28;20034;-61
2022/09/15 09:45:21;;;;;;;5.30;2.25;;;;;;;;;;5026868;28;20060;-60
2022/09/15 09:47:47;;;;;;;5.90;1.67;;;;;;;;;;5029312;28;20029;-60
2022/09/15 09:50:37;;;;;;;4.82;1.70;;;;;;;;;;5019611;28;20112;-60
2022/09/15 09:53:30;;;;;;;4.95;1.90;;;;;;;;;;5035071;28;20037;-61
2022/09/15 09:56:23;;;;;;;6.13;1.98;;;;;;;;;;5026189;28;20046;-61
2022/09/15 09:58:48;;;;;;;5.45;1.63;;;;;;;;;;5008757;28;20508;-61
2022/09/15 10:01:19;;;;;;;5.30;1.90;;;;;;;;;;5016211;28;20108;-61
2022/09/15 10:03:45;;;;;;;7.38;2.00;;;;;;;;;;5012189;28;20082;-64
2022/09/15 10:06:14;;;;;;;7.32;1.95;;;;;;;;;;5024913;28;20413;-61
2022/09/15 10:08:56;;;;;;;6.03;2.00;;;;;;;;;;4999539;28;20033;-59
2022/09/15 10:11:38;;;;;;;5.18;2.00;;;;;;;;;;5013888;28;20034;-60
2022/09/15 10:14:04;;;;;;;5.50;1.88;;;;;;;;;;5011390;28;20030;-63
2022/09/15 10:16:31;;;;;;;6.55;2.08;;;;;;;;;;5010887;28;20022;-62
2022/09/15 10:18:57;;;;;;;7.22;1.98;;;;;;;;;;5011894;28;20534;-63
2022/09/15 10:21:23;;;;;;;5.82;1.85;;;;;;;;;;5017883;28;20112;-61
2022/09/15 10:23:49;;;;;;;10.00;2.30;;;;;;;;;;5024437;28;20142;-61
2022/09/15 10:26:41;;;;;;;6.50;2.05;;;;;;;;;;5025159;28;20489;-61
2022/09/15 10:29:10;;;;;;;4.80;2.00;;;;;;;;;;5012041;28;20046;-60
2022/09/15 10:31:35;;;;;;;6.68;2.38;;;;;;;;;;5026695;28;20041;-61
2022/09/15 10:34:29;;;;;;;5.97;2.00;;;;;;;;;;5033107;28;20029;-61
2022/09/15 10:37:15;;;;;;;8.10;2.63;;;;;;;;;;5017371;28;20045;-64
2022/09/15 10:39:50;;;;;;;5.00;2.28;;;;;;;;;;5026375;28;20378;-64
2022/09/15 10:42:29;;;;;;;6.22;2.50;;;;;;;;;;5001533;28;20114;-64
2022/09/15 10:45:20;;;;;;;7.03;2.60;;;;;;;;;;5025762;28;20060;-65
2022/09/15 10:48:23;;;;;;;12.13;2.97;;;;;;;;;;5016941;28;20038;-65
2022/09/15 10:50:54;;;;;;;8.07;2.80;;;;;;;;;;5013752;28;20036;-64
2022/09/15 10:53:35;;;;;;;5.65;1.98;;;;;;;;;;5011148;28;20386;-63
2022/09/15 10:56:21;;;;;;;6.47;2.03;;;;;;;;;;5013759;28;20116;-64
2022/09/15 10:59:17;;;;;;;8.30;2.40;;;;;;;;;;5008248;28;20065;-64
2022/09/15 11:01:57;;;;;;;7.95;1.90;;;;;;;;;;5013803;28;20049;-63
2022/09/15 11:04:44;;;;;;;6.88;2.05;;;;;;;;;;5014976;28;20072;-64
2022/09/15 11:07:28;;;;;;;5.18;2.00;;;;;;;;;;5017489;28;20060;-64
2022/09/15 11:10:03;;;;;;;5.18;1.67;;;;;;;;;;5014130;28;20135;-62
2022/09/15 11:12:57;;;;;;;8.02;1.60;;;;;;;;;;5028899;28;20085;-64
2022/09/15 11:15:35;;;;;;;8.32;1.73;;;;;;;;;;5010617;28;20392;-62
2022/09/15 11:18:30;;;;;;;5.50;1.50;;;;;;;;;;5001024;28;20092;-64
2022/09/15 11:21:25;;;;;;;6.55;1.77;;;;;;;;;;5015925;28;20459;-64
2022/09/15 11:24:13;;;;;;;4.57;1.58;;;;;;;;;;5013738;28;20022;-64
2022/09/15 11:27:01;;;;;;;7.97;1.70;;;;;;;;;;5023573;28;20367;-66
2022/09/15 11:30:11;;;;;;;4.47;1.55;;;;;;;;;;5016687;28;20163;-64
2022/09/15 11:33:03;;;;;;;7.90;1.60;;;;;;;;;;4991418;28;20046;-66
2022/09/15 11:35:38;;;;;;;5.72;1.60;;;;;;;;;;5013347;28;20041;-67
2022/09/15 11:38:46;;;;;;;5.38;1.63;;;;;;;;;;5018596;28;20049;-69
2022/09/15 11:41:21;;;;;;;5.15;1.50;;;;;;;;;;5018369;28;20044;-64
2022/09/15 11:44:08;;;;;;;5.30;1.60;;;;;;;;;;5019838;28;20117;-66
2022/09/15 11:46:48;;;;;;;4.35;1.50;;;;;;;;;;5018620;28;20474;-67
2022/09/15 11:49:25;;;;;;;4.03;1.25;;;;;;;;;;5004629;28;20557;-64
2022/09/15 11:51:59;;;;;;;5.13;1.40;;;;;;;;;;5021983;28;20060;-66
2022/09/15 11:54:33;;;;;;;6.70;1.40;;;;;;;;;;5030017;28;20033;-62
2022/09/15 11:56:59;;;;;;;3.92;1.38;;;;;;;;;;5027814;28;20091;-61
2022/09/15 11:59:36;;;;;;;4.50;1.52;;;;;;;;;;5029862;28;20505;-63
2022/09/15 12:02:29;;;;;;;6.38;1.67;;;;;;;;;;5017900;28;20033;-64
2022/09/15 12:05:02;;;;;;;4.47;1.25;;;;;;;;;;5027017;28;20525;-64
2022/09/15 12:07:31;;;;;;;5.95;1.63;;;;;;;;;;4994546;28;20121;-63
2022/09/15 12:10:04;;;;;;;8.23;1.70;;;;;;;;;;4992176;28;20364;-62
2022/09/15 12:12:31;;;;;;;5.85;1.33;;;;;;;;;;4994132;28;20061;-61
2022/09/15 12:14:57;;;;;;;4.22;1.50;;;;;;;;;;5007924;28;20486;-62
2022/09/15 12:17:50;;;;;;;4.05;1.25;;;;;;;;;;5030455;28;20042;-61
2022/09/15 12:20:24;;;;;;;3.47;1.10;;;;;;;;;;5023691;28;20038;-63
2022/09/15 12:23:02;;;;;;;3.08;1.20;;;;;;;;;;5008261;28;20520;-60
2022/09/15 12:25:40;;;;;;;4.65;1.30;;;;;;;;;;5016984;28;20073;-62
2022/09/15 12:28:21;;;;;;;3.30;1.20;;;;;;;;;;5013979;28;20455;-62
2022/09/15 12:30:48;;;;;;;3.88;1.27;;;;;;;;;;5032113;28;20037;-62
2022/09/15 12:33:53;;;;;;;3.60;1.30;;;;;;;;;;5018560;28;20037;-62
2022/09/15 12:36:44;;;;;;;2.60;1.40;;;;;;;;;;4967149;28;20587;-63
2022/09/15 12:39:25;;;;;;;6.20;1.67;;;;;;;;;;4954269;28;20119;-61
2022/09/15 12:42:03;;;;;;;3.67;1.25;;;;;;;;;;4984917;28;20069;-63
2022/09/15 12:44:36;;;;;;;5.15;1.80;;;;;;;;;;5013932;28;20652;-61
2022/09/15 12:47:06;;;;;;;6.43;1.60;;;;;;;;;;5027907;28;20037;-62
2022/09/15 12:49:42;;;;;;;5.35;1.85;;;;;;;;;;5021906;28;20053;-62
2022/09/15 12:52:09;;;;;;;8.52;1.80;;;;;;;;;;5024611;28;20041;-63
2022/09/15 12:54:38;;;;;;;5.50;1.63;;;;;;;;;;5030788;28;20026;-63
2022/09/15 12:57:05;;;;;;;6.47;2.00;;;;;;;;;;5016159;28;20360;-63
2022/09/15 12:59:31;;;;;;;5.00;1.77;;;;;;;;;;5010980;28;20025;-62
2022/09/15 13:01:57;;;;;;;7.88;1.80;;;;;;;;;;5017952;28;20359;-62
2022/09/15 13:04:41;;;;;;;6.85;1.65;;;;;;;;;;5030600;28;20021;-62
2022/09/15 13:07:17;;;;;;;7.40;1.90;;;;;;;;;;5026972;28;20057;-61
2022/09/15 13:10:09;;;;;;;9.13;1.80;;;;;;;;;;5031379;28;20040;-62
2022/09/15 13:12:39;;;;;;;7.82;1.80;;;;;;;;;;5022085;28;20055;-62
2022/09/15 13:15:12;;;;;;;3.58;1.90;;;;;;;;;;5012616;28;20099;-63
2022/09/15 13:17:41;;;;;;;7.30;1.95;;;;;;;;;;5016564;28;20041;-62
2022/09/15 13:20:13;;;;;;;6.72;1.90;;;;;;;;;;5009032;28;20719;-61
2022/09/15 13:22:46;;;;;;;6.80;2.03;;;;;;;;;;5014376;28;20445;-61
2022/09/15 13:25:14;;;;;;;5.65;1.80;;;;;;;;;;5026290;28;20025;-61
2022/09/15 13:27:58;;;;;;;6.88;1.60;;;;;;;;;;5027755;28;20033;-63
2022/09/15 13:30:39;;;;;;;5.57;1.70;;;;;;;;;;5021272;28;20053;-62
2022/09/15 13:33:36;;;;;;;5.82;1.85;;;;;;;;;;5023327;28;20534;-62
2022/09/15 13:36:23;;;;;;;4.47;1.50;;;;;;;;;;5011219;28;20048;-62
2022/09/15 13:39:07;;;;;;;4.43;1.50;;;;;;;;;;5010682;28;20471;-60
2022/09/15 13:41:57;;;;;;;3.17;1.40;;;;;;;;;;5016824;28;20048;-61
2022/09/15 13:44:34;;;;;;;9.13;2.07;;;;;;;;;;5011640;28;20534;-62
2022/09/15 13:47:24;;;;;;;4.43;1.50;;;;;;;;;;5027590;28;20278;-61
2022/09/15 13:49:59;;;;;;;6.07;1.52;;;;;;;;;;5011757;28;20439;-61
2022/09/15 13:52:31;;;;;;;5.82;1.50;;;;;;;;;;5027452;28;20080;-61
2022/09/15 13:55:25;;;;;;;4.25;1.30;;;;;;;;;;5022954;28;20105;-63
2022/09/15 13:57:56;;;;;;;3.30;1.40;;;;;;;;;;4991695;28;20402;-63
2022/09/15 14:00:53;;;;;;;4.72;1.60;;;;;;;;;;4995260;28;20038;-63
2022/09/15 14:03:41;;;;;;;5.47;1.40;;;;;;;;;;4990853;28;20030;-62
2022/09/15 14:06:24;;;;;;;5.15;1.38;;;;;;;;;;5017334;28;20056;-62
2022/09/15 14:08:55;;;;;;;3.03;1.40;;;;;;;;;;5029773;28;20041;-63
2022/09/15 14:11:26;;;;;;;2.80;1.25;;;;;;;;;;5025010;28;20033;-61
2022/09/15 14:13:53;;;;;;;4.25;1.20;;;;;;;;;;5028474;28;20022;-62
2022/09/15 14:16:27;;;;;;;3.83;1.27;;;;;;;;;;5028126;28;20505;-62
2022/09/15 14:18:56;;;;;;;2.78;1.10;;;;;;;;;;5018671;28;20085;-62
2022/09/15 14:21:32;;;;;;;4.25;0.95;;;;;;;;;;5019589;28;20429;-62
2022/09/15 14:24:03;;;;;;;4.22;1.10;;;;;;;;;;5019298;28;20084;-62
2022/09/15 14:26:33;;;;;;;2.30;1.00;;;;;;;;;;5019238;28;20065;-62
2022/09/15 14:29:04;;;;;;;3.08;1.10;;;;;;;;;;5020349;28;20052;-62
2022/09/15 14:31:33;;;;;;;4.65;1.23;;;;;;;;;;5033246;28;20030;-62
2022/09/15 14:34:01;;;;;;;3.05;1.30;;;;;;;;;;5018404;28;20045;-62
2022/09/15 14:36:30;;;;;;;2.80;1.00;;;;;;;;;;5033054;28;20095;-62
2022/09/15 14:39:11;;;;;;;3.28;1.08;;;;;;;;;;5021009;28;20044;-61
2022/09/15 14:41:40;;;;;;;5.13;1.40;;;;;;;;;;5012396;28;20034;-62
2022/09/15 14:44:18;;;;;;;2.80;0.95;;;;;;;;;;5007530;28;20120;-63
2022/09/15 14:46:44;;;;;;;2.70;1.02;;;;;;;;;;5014528;28;20388;-61
2022/09/15 14:49:13;;;;;;;3.90;1.30;;;;;;;;;;4996862;28;20045;-60
2022/09/15 14:51:41;;;;;;;3.75;1.23;;;;;;;;;;4999473;28;20029;-61
2022/09/15 14:54:15;;;;;;;6.25;1.23;;;;;;;;;;5002569;28;20434;-61
2022/09/15 14:56:42;;;;;;;5.88;1.30;;;;;;;;;;5002755;28;20380;-60
2022/09/15 14:59:16;;;;;;;2.60;0.90;;;;;;;;;;5009140;28;20040;-61